sensor_id;sensor_type;location;lat;lon;timestamp;P1;durP1;ratioP1;P2;durP2;ratioP2
72037;SDS011;59900;50.788;12.904;2023-04-29T00:01:41;10.43;;;5.90;;
72037;SDS011;59900;50.788;12.904;2023-04-29T00:04:07;11.17;;;5.73;;
72037;SDS011;59900;50.788;12.904;2023-04-29T00:06:33;11.10;;;5.82;;
72037;SDS011;59900;50.788;12.904;2023-04-29T00:08:58;9.77;;;5.43;;
72037;SDS011;59900;50.788;12.904;2023-04-29T00:11:23;10.80;;;5.63;;
72037;SDS011;59900;50.788;12.904;2023-04-29T00:13:49;10.90;;;5.70;;
72037;SDS011;59900;50.788;12.904;2023-04-29T00:16:14;10.60;;;5.80;;
72037;SDS011;59900;50.788;12.904;2023-04-29T00:18:39;10.57;;;5.50;;
72037;SDS011;59900;50.788;12.904;2023-04-29T00:21:04;10.77;;;5.97;;
72037;SDS011;59900;50.788;12.904;2023-04-29T00:23:30;10.27;;;5.50;;
72037;SDS011;59900;50.788;12.904;2023-04-29T00:25:56;11.47;;;5.87;;
72037;SDS011;59900;50.788;12.904;2023-04-29T00:28:22;12.17;;;6.10;;
72037;SDS011;59900;50.788;12.904;2023-04-29T00:30:47;10.87;;;6.13;;
72037;SDS011;59900;50.788;12.904;2023-04-29T00:33:12;11.97;;;6.23;;
72037;SDS011;59900;50.788;12.904;2023-04-29T00:35:37;12.53;;;6.53;;
72037;SDS011;59900;50.788;12.904;2023-04-29T00:38:03;12.57;;;6.67;;
72037;SDS011;59900;50.788;12.904;2023-04-29T00:40:28;13.70;;;6.90;;
72037;SDS011;59900;50.788;12.904;2023-04-29T00:42:53;13.53;;;6.93;;
72037;SDS011;59900;50.788;12.904;2023-04-29T00:45:18;13.80;;;6.93;;
72037;SDS011;59900;50.788;12.904;2023-04-29T00:47:44;13.37;;;7.03;;
72037;SDS011;59900;50.788;12.904;2023-04-29T00:50:09;12.07;;;6.33;;
72037;SDS011;59900;50.788;12.904;2023-04-29T00:52:34;13.17;;;6.60;;
72037;SDS011;59900;50.788;12.904;2023-04-29T00:55:02;13.30;;;6.88;;
72037;SDS011;59900;50.788;12.904;2023-04-29T00:57:30;12.07;;;6.75;;
72037;SDS011;59900;50.788;12.904;2023-04-29T00:59:56;13.57;;;6.17;;
72037;SDS011;59900;50.788;12.904;2023-04-29T01:02:22;13.05;;;7.00;;
72037;SDS011;59900;50.788;12.904;2023-04-29T01:04:48;13.33;;;6.63;;
72037;SDS011;59900;50.788;12.904;2023-04-29T01:07:26;15.30;;;7.07;;
72037;SDS011;59900;50.788;12.904;2023-04-29T01:10:07;13.73;;;7.27;;
72037;SDS011;59900;50.788;12.904;2023-04-29T01:15:02;15.23;;;7.20;;
72037;SDS011;59900;50.788;12.904;2023-04-29T01:17:33;12.47;;;6.77;;
72037;SDS011;59900;50.788;12.904;2023-04-29T01:20:05;13.23;;;7.05;;
72037;SDS011;59900;50.788;12.904;2023-04-29T01:22:31;13.10;;;6.75;;
72037;SDS011;59900;50.788;12.904;2023-04-29T01:24:56;12.77;;;7.00;;
72037;SDS011;59900;50.788;12.904;2023-04-29T01:30:09;15.15;;;6.90;;
72037;SDS011;59900;50.788;12.904;2023-04-29T01:32:58;12.63;;;6.75;;
72037;SDS011;59900;50.788;12.904;2023-04-29T01:35:32;11.60;;;6.55;;
72037;SDS011;59900;50.788;12.904;2023-04-29T01:41:09;10.85;;;6.53;;
72037;SDS011;59900;50.788;12.904;2023-04-29T01:43:39;13.77;;;7.22;;
72037;SDS011;59900;50.788;12.904;2023-04-29T01:46:05;14.20;;;7.22;;
72037;SDS011;59900;50.788;12.904;2023-04-29T01:48:33;13.83;;;6.87;;
72037;SDS011;59900;50.788;12.904;2023-04-29T01:50:58;12.77;;;7.13;;
72037;SDS011;59900;50.788;12.904;2023-04-29T01:53:23;14.67;;;6.90;;
72037;SDS011;59900;50.788;12.904;2023-04-29T01:55:48;14.60;;;7.43;;
72037;SDS011;59900;50.788;12.904;2023-04-29T01:58:14;13.70;;;7.57;;
72037;SDS011;59900;50.788;12.904;2023-04-29T02:00:39;14.37;;;7.30;;
72037;SDS011;59900;50.788;12.904;2023-04-29T02:03:04;14.63;;;7.57;;
72037;SDS011;59900;50.788;12.904;2023-04-29T02:05:30;14.90;;;7.07;;
72037;SDS011;59900;50.788;12.904;2023-04-29T02:07:58;15.70;;;8.32;;
72037;SDS011;59900;50.788;12.904;2023-04-29T02:10:23;15.02;;;7.70;;
72037;SDS011;59900;50.788;12.904;2023-04-29T02:12:48;13.67;;;7.23;;
72037;SDS011;59900;50.788;12.904;2023-04-29T02:15:13;14.37;;;7.13;;
72037;SDS011;59900;50.788;12.904;2023-04-29T02:17:39;14.67;;;7.93;;
72037;SDS011;59900;50.788;12.904;2023-04-29T02:20:05;14.80;;;7.97;;
72037;SDS011;59900;50.788;12.904;2023-04-29T02:22:31;15.93;;;8.27;;
72037;SDS011;59900;50.788;12.904;2023-04-29T02:24:56;15.00;;;7.67;;
72037;SDS011;59900;50.788;12.904;2023-04-29T02:27:22;16.90;;;8.90;;
72037;SDS011;59900;50.788;12.904;2023-04-29T02:29:47;15.37;;;7.80;;
72037;SDS011;59900;50.788;12.904;2023-04-29T02:32:12;17.17;;;8.77;;
72037;SDS011;59900;50.788;12.904;2023-04-29T02:34:39;18.85;;;8.63;;
72037;SDS011;59900;50.788;12.904;2023-04-29T02:37:05;15.70;;;8.17;;
72037;SDS011;59900;50.788;12.904;2023-04-29T02:39:30;17.10;;;8.80;;
72037;SDS011;59900;50.788;12.904;2023-04-29T02:41:55;15.63;;;8.37;;
72037;SDS011;59900;50.788;12.904;2023-04-29T02:44:21;16.13;;;8.47;;
72037;SDS011;59900;50.788;12.904;2023-04-29T02:46:46;21.83;;;7.83;;
72037;SDS011;59900;50.788;12.904;2023-04-29T02:49:12;15.48;;;8.55;;
72037;SDS011;59900;50.788;12.904;2023-04-29T02:51:37;16.23;;;8.57;;
72037;SDS011;59900;50.788;12.904;2023-04-29T02:54:03;15.83;;;8.77;;
72037;SDS011;59900;50.788;12.904;2023-04-29T02:56:28;18.38;;;8.65;;
72037;SDS011;59900;50.788;12.904;2023-04-29T02:58:53;15.93;;;9.03;;
72037;SDS011;59900;50.788;12.904;2023-04-29T03:01:19;17.13;;;9.03;;
72037;SDS011;59900;50.788;12.904;2023-04-29T03:03:44;17.50;;;8.70;;
72037;SDS011;59900;50.788;12.904;2023-04-29T03:06:10;18.83;;;8.88;;
72037;SDS011;59900;50.788;12.904;2023-04-29T03:08:35;16.27;;;8.43;;
72037;SDS011;59900;50.788;12.904;2023-04-29T03:11:01;16.00;;;9.07;;
72037;SDS011;59900;50.788;12.904;2023-04-29T03:13:26;17.67;;;9.27;;
72037;SDS011;59900;50.788;12.904;2023-04-29T03:15:51;18.50;;;8.93;;
72037;SDS011;59900;50.788;12.904;2023-04-29T03:18:16;17.73;;;9.27;;
72037;SDS011;59900;50.788;12.904;2023-04-29T03:20:42;16.93;;;8.90;;
72037;SDS011;59900;50.788;12.904;2023-04-29T03:23:07;19.40;;;9.33;;
72037;SDS011;59900;50.788;12.904;2023-04-29T03:25:32;17.00;;;8.80;;
72037;SDS011;59900;50.788;12.904;2023-04-29T03:27:57;16.90;;;8.97;;
72037;SDS011;59900;50.788;12.904;2023-04-29T03:30:23;18.23;;;9.10;;
72037;SDS011;59900;50.788;12.904;2023-04-29T03:32:48;18.17;;;9.23;;
72037;SDS011;59900;50.788;12.904;2023-04-29T03:35:13;16.57;;;8.60;;
72037;SDS011;59900;50.788;12.904;2023-04-29T03:37:38;16.13;;;9.03;;
72037;SDS011;59900;50.788;12.904;2023-04-29T03:40:04;19.40;;;10.05;;
72037;SDS011;59900;50.788;12.904;2023-04-29T03:42:30;17.23;;;9.10;;
72037;SDS011;59900;50.788;12.904;2023-04-29T03:44:56;18.23;;;9.20;;
72037;SDS011;59900;50.788;12.904;2023-04-29T03:47:21;18.02;;;8.98;;
72037;SDS011;59900;50.788;12.904;2023-04-29T03:49:46;16.60;;;8.83;;
72037;SDS011;59900;50.788;12.904;2023-04-29T03:52:12;17.93;;;9.43;;
72037;SDS011;59900;50.788;12.904;2023-04-29T03:54:37;17.03;;;9.00;;
72037;SDS011;59900;50.788;12.904;2023-04-29T03:57:02;18.47;;;9.03;;
72037;SDS011;59900;50.788;12.904;2023-04-29T03:59:28;17.85;;;9.55;;
72037;SDS011;59900;50.788;12.904;2023-04-29T04:01:53;18.53;;;9.13;;
72037;SDS011;59900;50.788;12.904;2023-04-29T04:04:19;17.30;;;9.10;;
72037;SDS011;59900;50.788;12.904;2023-04-29T04:06:44;18.27;;;9.10;;
72037;SDS011;59900;50.788;12.904;2023-04-29T04:09:15;19.17;;;9.68;;
72037;SDS011;59900;50.788;12.904;2023-04-29T04:11:40;17.00;;;9.37;;
72037;SDS011;59900;50.788;12.904;2023-04-29T04:14:06;18.45;;;9.52;;
72037;SDS011;59900;50.788;12.904;2023-04-29T04:16:31;18.23;;;8.50;;
72037;SDS011;59900;50.788;12.904;2023-04-29T04:18:56;18.77;;;9.93;;
72037;SDS011;59900;50.788;12.904;2023-04-29T04:21:21;17.23;;;9.37;;
72037;SDS011;59900;50.788;12.904;2023-04-29T04:23:47;16.83;;;8.90;;
72037;SDS011;59900;50.788;12.904;2023-04-29T04:26:12;18.90;;;9.97;;
72037;SDS011;59900;50.788;12.904;2023-04-29T04:28:37;17.53;;;9.67;;
72037;SDS011;59900;50.788;12.904;2023-04-29T04:31:03;18.27;;;9.33;;
72037;SDS011;59900;50.788;12.904;2023-04-29T04:33:29;17.00;;;9.90;;
72037;SDS011;59900;50.788;12.904;2023-04-29T04:35:54;16.93;;;8.53;;
72037;SDS011;59900;50.788;12.904;2023-04-29T04:38:19;18.33;;;9.67;;
72037;SDS011;59900;50.788;12.904;2023-04-29T04:40:45;18.48;;;9.52;;
72037;SDS011;59900;50.788;12.904;2023-04-29T04:43:11;16.53;;;9.40;;
72037;SDS011;59900;50.788;12.904;2023-04-29T04:45:36;18.40;;;9.67;;
72037;SDS011;59900;50.788;12.904;2023-04-29T04:48:01;19.07;;;9.10;;
72037;SDS011;59900;50.788;12.904;2023-04-29T04:50:27;19.43;;;9.13;;
72037;SDS011;59900;50.788;12.904;2023-04-29T04:52:53;16.42;;;8.63;;
72037;SDS011;59900;50.788;12.904;2023-04-29T04:55:19;19.02;;;9.45;;
72037;SDS011;59900;50.788;12.904;2023-04-29T04:57:45;18.17;;;8.70;;
72037;SDS011;59900;50.788;12.904;2023-04-29T05:00:10;18.67;;;9.73;;
72037;SDS011;59900;50.788;12.904;2023-04-29T05:02:36;17.45;;;9.60;;
72037;SDS011;59900;50.788;12.904;2023-04-29T05:05:01;19.20;;;9.30;;
72037;SDS011;59900;50.788;12.904;2023-04-29T05:07:26;19.27;;;9.60;;
72037;SDS011;59900;50.788;12.904;2023-04-29T05:09:52;16.93;;;9.73;;
72037;SDS011;59900;50.788;12.904;2023-04-29T05:12:17;19.60;;;8.97;;
72037;SDS011;59900;50.788;12.904;2023-04-29T05:14:42;20.40;;;9.70;;
72037;SDS011;59900;50.788;12.904;2023-04-29T05:17:07;17.60;;;9.10;;
72037;SDS011;59900;50.788;12.904;2023-04-29T05:19:34;17.52;;;9.02;;
72037;SDS011;59900;50.788;12.904;2023-04-29T05:21:59;16.37;;;8.67;;
72037;SDS011;59900;50.788;12.904;2023-04-29T05:24:24;18.03;;;9.37;;
72037;SDS011;59900;50.788;12.904;2023-04-29T05:26:50;18.05;;;8.98;;
72037;SDS011;59900;50.788;12.904;2023-04-29T05:29:15;17.67;;;9.50;;
72037;SDS011;59900;50.788;12.904;2023-04-29T05:31:41;17.03;;;8.40;;
72037;SDS011;59900;50.788;12.904;2023-04-29T05:34:06;16.13;;;8.70;;
72037;SDS011;59900;50.788;12.904;2023-04-29T05:36:31;16.45;;;8.43;;
72037;SDS011;59900;50.788;12.904;2023-04-29T05:38:57;15.60;;;8.40;;
72037;SDS011;59900;50.788;12.904;2023-04-29T05:41:22;16.37;;;8.53;;
72037;SDS011;59900;50.788;12.904;2023-04-29T05:43:48;16.08;;;8.38;;
72037;SDS011;59900;50.788;12.904;2023-04-29T05:46:14;14.93;;;8.00;;
72037;SDS011;59900;50.788;12.904;2023-04-29T05:48:40;15.40;;;8.32;;
72037;SDS011;59900;50.788;12.904;2023-04-29T05:51:06;15.37;;;7.87;;
72037;SDS011;59900;50.788;12.904;2023-04-29T05:53:31;14.50;;;7.30;;
72037;SDS011;59900;50.788;12.904;2023-04-29T05:55:57;15.00;;;7.53;;
72037;SDS011;59900;50.788;12.904;2023-04-29T05:58:22;14.17;;;7.80;;
72037;SDS011;59900;50.788;12.904;2023-04-29T06:00:48;14.43;;;7.33;;
72037;SDS011;59900;50.788;12.904;2023-04-29T06:03:13;13.60;;;7.03;;
72037;SDS011;59900;50.788;12.904;2023-04-29T06:05:38;13.90;;;7.67;;
72037;SDS011;59900;50.788;12.904;2023-04-29T06:08:04;12.90;;;7.17;;
72037;SDS011;59900;50.788;12.904;2023-04-29T06:10:29;14.10;;;7.37;;
72037;SDS011;59900;50.788;12.904;2023-04-29T06:12:56;15.23;;;7.87;;
72037;SDS011;59900;50.788;12.904;2023-04-29T06:15:21;13.63;;;7.47;;
72037;SDS011;59900;50.788;12.904;2023-04-29T06:17:46;12.37;;;6.80;;
72037;SDS011;59900;50.788;12.904;2023-04-29T06:20:12;13.85;;;7.13;;
72037;SDS011;59900;50.788;12.904;2023-04-29T06:22:37;13.90;;;7.57;;
72037;SDS011;59900;50.788;12.904;2023-04-29T06:25:03;15.93;;;7.30;;
72037;SDS011;59900;50.788;12.904;2023-04-29T06:27:28;12.40;;;6.22;;
72037;SDS011;59900;50.788;12.904;2023-04-29T06:29:54;14.13;;;6.50;;
72037;SDS011;59900;50.788;12.904;2023-04-29T06:32:19;12.57;;;6.47;;
72037;SDS011;59900;50.788;12.904;2023-04-29T06:34:45;11.32;;;5.85;;
72037;SDS011;59900;50.788;12.904;2023-04-29T06:37:10;11.07;;;6.20;;
72037;SDS011;59900;50.788;12.904;2023-04-29T06:39:35;11.03;;;5.30;;
72037;SDS011;59900;50.788;12.904;2023-04-29T06:42:01;11.73;;;5.37;;
72037;SDS011;59900;50.788;12.904;2023-04-29T06:44:27;12.00;;;6.00;;
72037;SDS011;59900;50.788;12.904;2023-04-29T06:46:52;12.63;;;6.00;;
72037;SDS011;59900;50.788;12.904;2023-04-29T06:49:18;11.60;;;5.57;;
72037;SDS011;59900;50.788;12.904;2023-04-29T06:51:43;13.10;;;6.30;;
72037;SDS011;59900;50.788;12.904;2023-04-29T06:54:08;13.37;;;6.73;;
72037;SDS011;59900;50.788;12.904;2023-04-29T06:56:33;13.73;;;7.17;;
72037;SDS011;59900;50.788;12.904;2023-04-29T06:58:59;12.37;;;6.50;;
72037;SDS011;59900;50.788;12.904;2023-04-29T07:01:24;14.10;;;6.87;;
72037;SDS011;59900;50.788;12.904;2023-04-29T07:03:49;13.50;;;7.10;;
72037;SDS011;59900;50.788;12.904;2023-04-29T07:06:15;12.87;;;6.70;;
72037;SDS011;59900;50.788;12.904;2023-04-29T07:08:40;15.33;;;7.03;;
72037;SDS011;59900;50.788;12.904;2023-04-29T07:11:05;13.13;;;6.27;;
72037;SDS011;59900;50.788;12.904;2023-04-29T07:13:30;13.23;;;6.40;;
72037;SDS011;59900;50.788;12.904;2023-04-29T07:15:56;12.87;;;6.00;;
72037;SDS011;59900;50.788;12.904;2023-04-29T07:18:21;14.77;;;6.33;;
72037;SDS011;59900;50.788;12.904;2023-04-29T07:20:46;12.60;;;6.50;;
72037;SDS011;59900;50.788;12.904;2023-04-29T07:23:12;12.00;;;6.03;;
72037;SDS011;59900;50.788;12.904;2023-04-29T07:25:38;12.18;;;6.50;;
72037;SDS011;59900;50.788;12.904;2023-04-29T07:28:04;12.87;;;6.27;;
72037;SDS011;59900;50.788;12.904;2023-04-29T07:30:30;14.52;;;6.55;;
72037;SDS011;59900;50.788;12.904;2023-04-29T07:32:55;11.40;;;6.43;;
72037;SDS011;59900;50.788;12.904;2023-04-29T07:35:20;11.13;;;6.30;;
72037;SDS011;59900;50.788;12.904;2023-04-29T07:37:46;10.20;;;5.97;;
72037;SDS011;59900;50.788;12.904;2023-04-29T07:40:12;10.77;;;5.72;;
72037;SDS011;59900;50.788;12.904;2023-04-29T07:42:37;11.00;;;5.57;;
72037;SDS011;59900;50.788;12.904;2023-04-29T07:45:02;10.80;;;5.13;;
72037;SDS011;59900;50.788;12.904;2023-04-29T07:47:28;10.83;;;5.30;;
72037;SDS011;59900;50.788;12.904;2023-04-29T07:49:53;10.17;;;5.30;;
72037;SDS011;59900;50.788;12.904;2023-04-29T07:52:18;13.57;;;5.17;;
72037;SDS011;59900;50.788;12.904;2023-04-29T07:54:44;10.57;;;5.10;;
72037;SDS011;59900;50.788;12.904;2023-04-29T07:57:09;9.20;;;4.50;;
72037;SDS011;59900;50.788;12.904;2023-04-29T07:59:34;8.90;;;4.83;;
72037;SDS011;59900;50.788;12.904;2023-04-29T08:01:59;8.83;;;4.57;;
72037;SDS011;59900;50.788;12.904;2023-04-29T08:04:25;8.57;;;4.57;;
72037;SDS011;59900;50.788;12.904;2023-04-29T08:06:50;9.83;;;4.90;;
72037;SDS011;59900;50.788;12.904;2023-04-29T08:09:15;8.63;;;4.23;;
72037;SDS011;59900;50.788;12.904;2023-04-29T08:11:41;8.20;;;3.70;;
72037;SDS011;59900;50.788;12.904;2023-04-29T08:14:07;8.80;;;4.20;;
72037;SDS011;59900;50.788;12.904;2023-04-29T08:16:32;9.43;;;4.57;;
72037;SDS011;59900;50.788;12.904;2023-04-29T08:18:58;9.82;;;4.20;;
72037;SDS011;59900;50.788;12.904;2023-04-29T08:21:23;8.70;;;4.50;;
72037;SDS011;59900;50.788;12.904;2023-04-29T08:23:48;7.93;;;4.10;;
72037;SDS011;59900;50.788;12.904;2023-04-29T08:26:14;9.47;;;3.93;;
72037;SDS011;59900;50.788;12.904;2023-04-29T08:28:39;12.47;;;4.00;;
72037;SDS011;59900;50.788;12.904;2023-04-29T08:31:04;9.48;;;4.30;;
72037;SDS011;59900;50.788;12.904;2023-04-29T08:33:34;8.53;;;4.07;;
72037;SDS011;59900;50.788;12.904;2023-04-29T08:36:00;7.68;;;4.00;;
72037;SDS011;59900;50.788;12.904;2023-04-29T08:38:27;7.55;;;3.90;;
72037;SDS011;59900;50.788;12.904;2023-04-29T08:40:53;7.40;;;3.45;;
72037;SDS011;59900;50.788;12.904;2023-04-29T08:43:20;7.40;;;3.40;;
72037;SDS011;59900;50.788;12.904;2023-04-29T08:45:46;7.40;;;3.70;;
72037;SDS011;59900;50.788;12.904;2023-04-29T08:48:13;6.25;;;3.10;;
72037;SDS011;59900;50.788;12.904;2023-04-29T08:50:40;5.95;;;2.50;;
72037;SDS011;59900;50.788;12.904;2023-04-29T08:53:08;6.28;;;2.88;;
72037;SDS011;59900;50.788;12.904;2023-04-29T08:55:35;6.67;;;2.77;;
72037;SDS011;59900;50.788;12.904;2023-04-29T08:58:05;6.20;;;2.83;;
72037;SDS011;59900;50.788;12.904;2023-04-29T09:00:31;6.30;;;3.03;;
72037;SDS011;59900;50.788;12.904;2023-04-29T09:02:59;7.22;;;3.17;;
72037;SDS011;59900;50.788;12.904;2023-04-29T09:05:29;6.38;;;2.90;;
72037;SDS011;59900;50.788;12.904;2023-04-29T09:07:55;6.77;;;3.50;;
72037;SDS011;59900;50.788;12.904;2023-04-29T09:10:23;6.35;;;3.03;;
72037;SDS011;59900;50.788;12.904;2023-04-29T09:12:50;7.13;;;3.20;;
72037;SDS011;59900;50.788;12.904;2023-04-29T09:15:15;6.93;;;3.20;;
72037;SDS011;59900;50.788;12.904;2023-04-29T09:17:44;6.60;;;3.20;;
72037;SDS011;59900;50.788;12.904;2023-04-29T09:25:17;6.70;;;3.17;;
72037;SDS011;59900;50.788;12.904;2023-04-29T09:27:43;7.23;;;3.40;;
72037;SDS011;59900;50.788;12.904;2023-04-29T09:30:09;5.63;;;2.80;;
72037;SDS011;59900;50.788;12.904;2023-04-29T09:32:36;5.82;;;2.72;;
72037;SDS011;59900;50.788;12.904;2023-04-29T09:35:21;6.90;;;2.73;;
72037;SDS011;59900;50.788;12.904;2023-04-29T09:37:46;6.28;;;2.90;;
72037;SDS011;59900;50.788;12.904;2023-04-29T09:40:26;6.78;;;3.00;;
72037;SDS011;59900;50.788;12.904;2023-04-29T09:42:54;7.13;;;3.30;;
72037;SDS011;59900;50.788;12.904;2023-04-29T09:45:32;7.47;;;3.60;;
72037;SDS011;59900;50.788;12.904;2023-04-29T09:48:02;7.67;;;3.90;;
72037;SDS011;59900;50.788;12.904;2023-04-29T09:50:31;7.78;;;3.88;;
72037;SDS011;59900;50.788;12.904;2023-04-29T09:52:57;8.55;;;4.00;;
72037;SDS011;59900;50.788;12.904;2023-04-29T09:55:23;7.55;;;3.83;;
72037;SDS011;59900;50.788;12.904;2023-04-29T09:57:48;7.03;;;3.80;;
72037;SDS011;59900;50.788;12.904;2023-04-29T10:00:13;8.27;;;3.97;;
72037;SDS011;59900;50.788;12.904;2023-04-29T10:02:42;8.93;;;4.27;;
72037;SDS011;59900;50.788;12.904;2023-04-29T10:05:13;8.50;;;4.22;;
72037;SDS011;59900;50.788;12.904;2023-04-29T10:07:39;8.00;;;4.35;;
72037;SDS011;59900;50.788;12.904;2023-04-29T10:10:05;9.30;;;4.57;;
72037;SDS011;59900;50.788;12.904;2023-04-29T10:12:32;10.23;;;4.82;;
72037;SDS011;59900;50.788;12.904;2023-04-29T10:15:03;8.98;;;4.70;;
72037;SDS011;59900;50.788;12.904;2023-04-29T10:17:45;12.77;;;5.88;;
72037;SDS011;59900;50.788;12.904;2023-04-29T10:20:22;13.13;;;7.25;;
72037;SDS011;59900;50.788;12.904;2023-04-29T10:22:49;14.10;;;7.97;;
72037;SDS011;59900;50.788;12.904;2023-04-29T10:25:16;16.55;;;9.20;;
72037;SDS011;59900;50.788;12.904;2023-04-29T10:27:45;15.63;;;8.95;;
72037;SDS011;59900;50.788;12.904;2023-04-29T10:30:13;17.48;;;9.93;;
72037;SDS011;59900;50.788;12.904;2023-04-29T10:32:40;19.55;;;9.63;;
72037;SDS011;59900;50.788;12.904;2023-04-29T10:35:09;17.50;;;9.70;;
72037;SDS011;59900;50.788;12.904;2023-04-29T10:37:37;17.73;;;10.13;;
72037;SDS011;59900;50.788;12.904;2023-04-29T10:40:13;19.08;;;10.05;;
72037;SDS011;59900;50.788;12.904;2023-04-29T10:42:45;18.77;;;10.93;;
72037;SDS011;59900;50.788;12.904;2023-04-29T10:45:19;18.52;;;9.73;;
72037;SDS011;59900;50.788;12.904;2023-04-29T10:48:07;20.00;;;9.35;;
72037;SDS011;59900;50.788;12.904;2023-04-29T10:50:34;19.52;;;10.13;;
72037;SDS011;59900;50.788;12.904;2023-04-29T10:53:12;20.48;;;10.35;;
72037;SDS011;59900;50.788;12.904;2023-04-29T10:55:38;20.80;;;10.97;;
72037;SDS011;59900;50.788;12.904;2023-04-29T10:58:05;18.42;;;10.82;;
72037;SDS011;59900;50.788;12.904;2023-04-29T11:00:50;24.20;;;11.85;;
72037;SDS011;59900;50.788;12.904;2023-04-29T11:03:44;21.90;;;11.32;;
72037;SDS011;59900;50.788;12.904;2023-04-29T11:06:26;22.75;;;11.93;;
72037;SDS011;59900;50.788;12.904;2023-04-29T11:11:56;19.85;;;10.77;;
72037;SDS011;59900;50.788;12.904;2023-04-29T11:14:28;20.92;;;11.55;;
72037;SDS011;59900;50.788;12.904;2023-04-29T11:16:55;21.02;;;11.13;;
72037;SDS011;59900;50.788;12.904;2023-04-29T11:19:23;21.00;;;11.80;;
72037;SDS011;59900;50.788;12.904;2023-04-29T11:22:02;21.23;;;11.50;;
72037;SDS011;59900;50.788;12.904;2023-04-29T11:24:33;21.23;;;11.60;;
72037;SDS011;59900;50.788;12.904;2023-04-29T11:26:59;22.25;;;11.57;;
72037;SDS011;59900;50.788;12.904;2023-04-29T11:29:29;22.98;;;12.93;;
72037;SDS011;59900;50.788;12.904;2023-04-29T11:32:01;20.23;;;11.55;;
72037;SDS011;59900;50.788;12.904;2023-04-29T11:34:26;23.00;;;12.13;;
72037;SDS011;59900;50.788;12.904;2023-04-29T11:36:52;21.43;;;12.33;;
72037;SDS011;59900;50.788;12.904;2023-04-29T11:39:17;22.73;;;12.43;;
72037;SDS011;59900;50.788;12.904;2023-04-29T11:41:42;21.77;;;12.20;;
72037;SDS011;59900;50.788;12.904;2023-04-29T11:44:08;19.10;;;11.13;;
72037;SDS011;59900;50.788;12.904;2023-04-29T11:46:34;20.27;;;12.02;;
72037;SDS011;59900;50.788;12.904;2023-04-29T11:48:59;18.40;;;10.87;;
72037;SDS011;59900;50.788;12.904;2023-04-29T11:51:25;19.90;;;11.13;;
72037;SDS011;59900;50.788;12.904;2023-04-29T11:53:51;19.67;;;11.43;;
72037;SDS011;59900;50.788;12.904;2023-04-29T11:56:19;19.17;;;11.07;;
72037;SDS011;59900;50.788;12.904;2023-04-29T11:58:48;17.45;;;10.40;;
72037;SDS011;59900;50.788;12.904;2023-04-29T12:01:13;17.80;;;10.90;;
72037;SDS011;59900;50.788;12.904;2023-04-29T12:03:38;18.93;;;10.13;;
72037;SDS011;59900;50.788;12.904;2023-04-29T12:06:04;17.02;;;9.65;;
72037;SDS011;59900;50.788;12.904;2023-04-29T12:08:30;19.20;;;9.40;;
72037;SDS011;59900;50.788;12.904;2023-04-29T12:10:58;17.05;;;9.20;;
72037;SDS011;59900;50.788;12.904;2023-04-29T12:13:27;16.20;;;9.45;;
72037;SDS011;59900;50.788;12.904;2023-04-29T12:15:54;17.20;;;9.38;;
72037;SDS011;59900;50.788;12.904;2023-04-29T12:18:20;17.13;;;9.30;;
72037;SDS011;59900;50.788;12.904;2023-04-29T12:20:47;16.83;;;9.47;;
72037;SDS011;59900;50.788;12.904;2023-04-29T12:23:13;15.95;;;9.38;;
72037;SDS011;59900;50.788;12.904;2023-04-29T12:25:40;17.48;;;9.80;;
72037;SDS011;59900;50.788;12.904;2023-04-29T12:28:12;17.10;;;10.27;;
72037;SDS011;59900;50.788;12.904;2023-04-29T12:30:38;18.40;;;10.25;;
72037;SDS011;59900;50.788;12.904;2023-04-29T12:33:03;16.90;;;10.53;;
72037;SDS011;59900;50.788;12.904;2023-04-29T12:35:28;16.83;;;9.30;;
72037;SDS011;59900;50.788;12.904;2023-04-29T12:37:56;16.42;;;9.50;;
72037;SDS011;59900;50.788;12.904;2023-04-29T12:40:22;17.60;;;9.40;;
72037;SDS011;59900;50.788;12.904;2023-04-29T12:42:48;17.92;;;9.45;;
72037;SDS011;59900;50.788;12.904;2023-04-29T12:45:27;16.13;;;8.80;;
72037;SDS011;59900;50.788;12.904;2023-04-29T12:47:55;14.20;;;8.40;;
72037;SDS011;59900;50.788;12.904;2023-04-29T12:50:26;13.38;;;8.07;;
72037;SDS011;59900;50.788;12.904;2023-04-29T12:52:54;13.20;;;8.40;;
72037;SDS011;59900;50.788;12.904;2023-04-29T12:55:20;12.43;;;7.23;;
72037;SDS011;59900;50.788;12.904;2023-04-29T12:57:45;12.05;;;7.07;;
72037;SDS011;59900;50.788;12.904;2023-04-29T13:00:11;12.70;;;6.77;;
72037;SDS011;59900;50.788;12.904;2023-04-29T13:02:36;10.77;;;6.20;;
72037;SDS011;59900;50.788;12.904;2023-04-29T13:05:02;11.13;;;6.57;;
72037;SDS011;59900;50.788;12.904;2023-04-29T13:07:28;11.57;;;6.80;;
72037;SDS011;59900;50.788;12.904;2023-04-29T13:09:53;13.13;;;7.33;;
72037;SDS011;59900;50.788;12.904;2023-04-29T13:12:19;13.23;;;7.80;;
72037;SDS011;59900;50.788;12.904;2023-04-29T13:14:44;12.40;;;7.33;;
72037;SDS011;59900;50.788;12.904;2023-04-29T13:17:09;13.50;;;8.10;;
72037;SDS011;59900;50.788;12.904;2023-04-29T13:19:34;12.90;;;8.20;;
72037;SDS011;59900;50.788;12.904;2023-04-29T13:22:00;12.82;;;7.75;;
72037;SDS011;59900;50.788;12.904;2023-04-29T13:24:25;11.57;;;7.07;;
72037;SDS011;59900;50.788;12.904;2023-04-29T13:26:51;11.07;;;6.70;;
72037;SDS011;59900;50.788;12.904;2023-04-29T13:29:16;10.75;;;6.85;;
72037;SDS011;59900;50.788;12.904;2023-04-29T13:31:42;13.90;;;8.07;;
72037;SDS011;59900;50.788;12.904;2023-04-29T13:34:08;14.23;;;8.77;;
72037;SDS011;59900;50.788;12.904;2023-04-29T13:36:33;18.73;;;10.10;;
72037;SDS011;59900;50.788;12.904;2023-04-29T13:38:58;17.47;;;10.93;;
72037;SDS011;59900;50.788;12.904;2023-04-29T13:41:23;16.10;;;10.43;;
72037;SDS011;59900;50.788;12.904;2023-04-29T13:43:50;17.40;;;10.90;;
72037;SDS011;59900;50.788;12.904;2023-04-29T13:46:15;17.93;;;10.67;;
72037;SDS011;59900;50.788;12.904;2023-04-29T13:48:40;18.20;;;11.50;;
72037;SDS011;59900;50.788;12.904;2023-04-29T13:51:06;17.97;;;11.37;;
72037;SDS011;59900;50.788;12.904;2023-04-29T13:53:31;16.92;;;10.88;;
72037;SDS011;59900;50.788;12.904;2023-04-29T13:55:56;18.80;;;10.23;;
72037;SDS011;59900;50.788;12.904;2023-04-29T13:58:23;17.90;;;10.60;;
72037;SDS011;59900;50.788;12.904;2023-04-29T14:00:48;17.53;;;10.70;;
72037;SDS011;59900;50.788;12.904;2023-04-29T14:03:13;19.20;;;11.10;;
72037;SDS011;59900;50.788;12.904;2023-04-29T14:05:39;16.35;;;9.82;;
72037;SDS011;59900;50.788;12.904;2023-04-29T14:08:05;20.20;;;10.90;;
72037;SDS011;59900;50.788;12.904;2023-04-29T14:10:30;17.53;;;9.77;;
72037;SDS011;59900;50.788;12.904;2023-04-29T14:12:55;15.20;;;8.13;;
72037;SDS011;59900;50.788;12.904;2023-04-29T14:15:21;14.40;;;8.50;;
72037;SDS011;59900;50.788;12.904;2023-04-29T14:17:46;14.10;;;8.13;;
72037;SDS011;59900;50.788;12.904;2023-04-29T14:20:14;14.67;;;8.67;;
72037;SDS011;59900;50.788;12.904;2023-04-29T14:22:39;15.25;;;8.63;;
72037;SDS011;59900;50.788;12.904;2023-04-29T14:25:05;14.37;;;8.47;;
72037;SDS011;59900;50.788;12.904;2023-04-29T14:27:31;14.55;;;8.20;;
72037;SDS011;59900;50.788;12.904;2023-04-29T14:29:56;14.60;;;8.47;;
72037;SDS011;59900;50.788;12.904;2023-04-29T14:32:21;14.80;;;8.10;;
72037;SDS011;59900;50.788;12.904;2023-04-29T14:34:46;15.17;;;8.70;;